Time;durP1;ratioP1;P1;durP2;ratioP2;P2;SDS_P1;SDS_P2;PMS_P1;PMS_P2;Temp;Humidity;BMP_temperature;BMP_pressure;BME280_temperature;BME280_humidity;BME280_pressure;Samples;Min_cycle;Max_cycle;Signal;HPM_P1;HPM_P2
2021/10/18 00:00:14;;;;;;;31.20;19.00;;;10.50;99.90;;;;;;5065570;28;20048;-80
2021/10/18 00:02:41;;;;;;;30.60;18.92;;;10.50;99.90;;;;;;5068220;28;20033;-81
2021/10/18 00:05:09;;;;;;;25.17;15.98;;;10.50;99.90;;;;;;5067406;28;20435;-81
2021/10/18 00:07:35;;;;;;;23.65;15.00;;;10.50;99.90;;;;;;5071594;28;20029;-82
2021/10/18 00:10:03;;;;;;;21.77;13.60;;;10.50;99.90;;;;;;5062093;28;20108;-81
2021/10/18 00:12:28;;;;;;;23.40;14.95;;;10.50;99.90;;;;;;5068341;28;20028;-80
2021/10/18 00:14:54;;;;;;;27.75;14.68;;;10.50;99.90;;;;;;5061388;28;20497;-80
2021/10/18 00:17:20;;;;;;;22.85;14.30;;;10.60;99.90;;;;;;5068014;28;20028;-81
2021/10/18 00:19:46;;;;;;;19.98;13.82;;;10.60;99.90;;;;;;5072340;28;20461;-81
2021/10/18 00:22:11;;;;;;;23.27;14.63;;;10.50;99.90;;;;;;5071261;28;20116;-80
2021/10/18 00:24:37;;;;;;;24.88;14.20;;;10.60;99.90;;;;;;5074852;28;20074;-81
2021/10/18 00:27:02;;;;;;;21.10;13.38;;;10.60;99.90;;;;;;5068135;28;20028;-80
2021/10/18 00:29:28;;;;;;;26.20;14.38;;;10.60;99.90;;;;;;5061866;28;20470;-80
2021/10/18 00:31:54;;;;;;;19.90;12.80;;;10.60;99.90;;;;;;5072293;28;20025;-80
2021/10/18 00:34:19;;;;;;;22.42;14.32;;;10.60;99.90;;;;;;5067481;28;20098;-82
2021/10/18 00:36:45;;;;;;;27.67;16.95;;;10.60;99.90;;;;;;5061488;28;20456;-81
2021/10/18 00:39:10;;;;;;;23.13;15.32;;;10.60;99.90;;;;;;5067684;28;20056;-82
2021/10/18 00:41:36;;;;;;;24.95;15.40;;;10.60;99.90;;;;;;5074978;28;20380;-81
2021/10/18 00:44:02;;;;;;;25.90;17.77;;;10.60;99.90;;;;;;5072144;28;20464;-82
2021/10/18 00:46:28;;;;;;;23.67;15.43;;;10.60;99.90;;;;;;5070077;28;20074;-81
2021/10/18 00:48:54;;;;;;;22.27;14.23;;;10.60;99.90;;;;;;5073201;28;20029;-81
2021/10/18 00:51:26;;;;;;;25.65;16.95;;;10.60;99.90;;;;;;5069813;28;20047;-83
2021/10/18 00:53:56;;;;;;;25.35;16.13;;;10.50;99.90;;;;;;5064601;28;20033;-80
2021/10/18 00:56:23;;;;;;;27.85;17.08;;;10.50;99.90;;;;;;5068667;28;20064;-81
2021/10/18 00:58:50;;;;;;;29.10;17.60;;;10.50;99.90;;;;;;5063128;28;20032;-81
2021/10/18 01:01:17;;;;;;;31.05;19.83;;;10.50;99.90;;;;;;5071361;28;20077;-81
2021/10/18 01:03:43;;;;;;;26.60;18.02;;;10.50;99.90;;;;;;5057944;28;20534;-82
2021/10/18 01:06:09;;;;;;;26.85;17.35;;;10.50;99.90;;;;;;5061435;28;20408;-81
2021/10/18 01:08:35;;;;;;;25.35;16.08;;;10.50;99.90;;;;;;5059275;28;20031;-81
2021/10/18 01:11:02;;;;;;;27.38;17.25;;;10.40;99.90;;;;;;5063941;28;20029;-81
2021/10/18 01:13:28;;;;;;;27.05;16.10;;;10.40;99.90;;;;;;5065261;28;20028;-80
2021/10/18 01:15:54;;;;;;;26.95;15.60;;;10.40;99.90;;;;;;5071997;28;20040;-81
2021/10/18 01:18:20;;;;;;;24.52;15.30;;;10.40;99.90;;;;;;5066141;28;20051;-80
2021/10/18 01:20:46;;;;;;;27.00;18.58;;;10.40;99.90;;;;;;5059788;28;20064;-81
2021/10/18 01:23:12;;;;;;;30.13;17.65;;;10.30;99.90;;;;;;5072243;28;20027;-80
2021/10/18 01:25:38;;;;;;;27.25;19.10;;;10.30;99.90;;;;;;5069884;28;20016;-81
2021/10/18 01:28:05;;;;;;;29.60;18.35;;;10.20;99.90;;;;;;5069339;28;20143;-80
2021/10/18 01:30:31;;;;;;;29.83;20.27;;;10.30;99.90;;;;;;5060938;28;20017;-81
2021/10/18 01:32:57;;;;;;;27.75;17.58;;;10.20;99.90;;;;;;5066908;28;20037;-81
2021/10/18 01:35:23;;;;;;;27.33;16.75;;;10.30;99.90;;;;;;5064705;28;20044;-80
2021/10/18 01:37:49;;;;;;;28.15;17.33;;;10.20;99.90;;;;;;5062432;28;20029;-80
2021/10/18 01:40:17;;;;;;;29.30;18.27;;;10.20;99.90;;;;;;5059704;28;20412;-80
2021/10/18 01:42:43;;;;;;;24.88;16.67;;;10.20;99.90;;;;;;5061446;28;20020;-81
2021/10/18 01:45:12;;;;;;;32.22;17.35;;;10.20;99.90;;;;;;5063807;28;20057;-81
2021/10/18 01:47:37;;;;;;;28.15;17.13;;;10.20;99.90;;;;;;5066468;28;20025;-81
2021/10/18 01:50:14;;;;;;;24.80;15.55;;;10.20;99.90;;;;;;5068510;28;20055;-81
2021/10/18 01:52:41;;;;;;;29.55;16.50;;;10.30;99.90;;;;;;5073526;28;20411;-80
2021/10/18 01:55:07;;;;;;;22.92;16.27;;;10.30;99.90;;;;;;5072606;28;20397;-81
2021/10/18 01:57:33;;;;;;;24.27;15.90;;;10.30;99.90;;;;;;5067183;28;20741;-80
2021/10/18 02:00:00;;;;;;;28.77;18.27;;;10.30;99.90;;;;;;5063250;28;20029;-80
2021/10/18 02:02:25;;;;;;;29.75;17.55;;;10.30;99.90;;;;;;5067147;28;20028;-80
2021/10/18 02:04:51;;;;;;;25.50;16.63;;;10.40;99.90;;;;;;5064161;28;20020;-80
2021/10/18 02:07:17;;;;;;;20.15;14.02;;;10.30;99.90;;;;;;5062076;28;20087;-81
2021/10/18 02:09:42;;;;;;;29.55;15.95;;;10.40;99.90;;;;;;5070232;28;20043;-80
2021/10/18 02:12:09;;;;;;;27.48;17.00;;;10.30;99.90;;;;;;5059821;28;20040;-80
2021/10/18 02:14:34;;;;;;;23.70;15.20;;;10.30;99.90;;;;;;5061542;28;20111;-80
2021/10/18 02:17:00;;;;;;;21.63;15.63;;;10.40;99.90;;;;;;5058802;28;20483;-81
2021/10/18 02:19:25;;;;;;;24.02;17.15;;;10.30;99.90;;;;;;5063387;28;20520;-80
2021/10/18 02:21:51;;;;;;;30.45;16.35;;;10.30;99.90;;;;;;5057271;28;20488;-81
2021/10/18 02:24:17;;;;;;;25.33;16.08;;;10.30;99.90;;;;;;5061786;28;20016;-80
2021/10/18 02:26:44;;;;;;;31.00;17.13;;;10.30;99.90;;;;;;5059660;28;20029;-80
2021/10/18 02:29:09;;;;;;;33.22;17.92;;;10.20;99.90;;;;;;5058714;28;20025;-80
2021/10/18 02:31:36;;;;;;;28.52;17.58;;;10.20;99.90;;;;;;5059985;28;20077;-80
2021/10/18 02:34:03;;;;;;;27.92;17.45;;;10.20;99.90;;;;;;5072534;28;20021;-81
2021/10/18 02:36:30;;;;;;;27.77;17.83;;;10.20;99.90;;;;;;5054451;28;20044;-80
2021/10/18 02:38:55;;;;;;;29.33;17.85;;;10.20;99.90;;;;;;5062566;28;20036;-80
2021/10/18 02:41:21;;;;;;;28.92;18.42;;;10.20;99.90;;;;;;5061352;28;20033;-81
2021/10/18 02:43:47;;;;;;;30.25;18.70;;;10.20;99.90;;;;;;5064277;28;20025;-81
2021/10/18 02:46:13;;;;;;;30.25;19.52;;;10.20;99.90;;;;;;5068364;28;20480;-81
2021/10/18 02:48:38;;;;;;;29.55;18.70;;;10.20;99.90;;;;;;5069166;28;20017;-81
2021/10/18 02:51:04;;;;;;;33.30;19.67;;;10.20;99.90;;;;;;5066412;28;20107;-81
2021/10/18 02:53:30;;;;;;;33.78;18.45;;;10.10;99.90;;;;;;5071262;28;20031;-82
2021/10/18 02:55:55;;;;;;;33.70;21.52;;;10.10;99.90;;;;;;5067966;28;20028;-81
2021/10/18 02:58:21;;;;;;;26.88;17.33;;;10.10;99.90;;;;;;5062244;28;20387;-81
2021/10/18 03:00:47;;;;;;;24.30;16.55;;;10.00;99.90;;;;;;5069405;28;20035;-81
2021/10/18 03:03:12;;;;;;;25.45;15.88;;;10.00;99.90;;;;;;5068809;28;20021;-81
2021/10/18 03:05:38;;;;;;;26.40;16.42;;;10.00;99.90;;;;;;5073167;28;20038;-81
2021/10/18 03:08:04;;;;;;;21.75;15.38;;;10.00;99.90;;;;;;5069156;28;20071;-81
2021/10/18 03:10:30;;;;;;;27.88;18.30;;;10.00;99.90;;;;;;5063479;28;20477;-82
2021/10/18 03:12:55;;;;;;;27.25;16.92;;;10.00;99.90;;;;;;5068644;28;20025;-82
2021/10/18 03:15:21;;;;;;;30.77;18.00;;;10.00;99.90;;;;;;5063720;28;20473;-81
2021/10/18 03:17:47;;;;;;;37.15;21.58;;;10.00;99.90;;;;;;5066838;28;20094;-81
2021/10/18 03:20:13;;;;;;;26.60;18.88;;;9.90;99.90;;;;;;5070179;28;20020;-81
2021/10/18 03:22:39;;;;;;;32.47;19.83;;;9.90;99.90;;;;;;5071190;28;20096;-82
2021/10/18 03:25:06;;;;;;;28.88;18.05;;;9.90;99.90;;;;;;5068912;28;20033;-82
2021/10/18 03:27:32;;;;;;;24.52;16.35;;;9.80;99.90;;;;;;5064780;28;21357;-82
2021/10/18 03:29:58;;;;;;;25.25;16.77;;;9.80;99.90;;;;;;5059529;28;20020;-82
2021/10/18 03:32:24;;;;;;;31.63;19.52;;;9.80;99.90;;;;;;5060094;28;20036;-81
2021/10/18 03:34:49;;;;;;;29.02;18.45;;;9.70;99.90;;;;;;5060291;28;20048;-81
2021/10/18 03:37:15;;;;;;;32.90;18.70;;;9.70;99.90;;;;;;5068406;28;20111;-82
2021/10/18 03:39:41;;;;;;;30.58;19.10;;;9.60;99.90;;;;;;5067220;28;20631;-81
2021/10/18 03:42:07;;;;;;;31.05;19.50;;;9.60;99.90;;;;;;5066451;28;20067;-81
2021/10/18 03:44:32;;;;;;;29.92;18.00;;;9.60;99.90;;;;;;5065926;28;20043;-81
2021/10/18 03:46:58;;;;;;;30.42;19.83;;;9.60;99.90;;;;;;5073561;28;20528;-81
2021/10/18 03:49:24;;;;;;;37.03;23.27;;;9.60;99.90;;;;;;5074375;28;20021;-81
2021/10/18 03:51:49;;;;;;;34.95;21.40;;;9.50;99.90;;;;;;5069088;28;20477;-81
2021/10/18 03:54:15;;;;;;;31.20;18.77;;;9.50;99.90;;;;;;5072638;28;20120;-80
2021/10/18 03:56:41;;;;;;;31.98;20.48;;;9.50;99.90;;;;;;5083959;28;20068;-81
2021/10/18 03:59:07;;;;;;;26.25;18.58;;;9.50;99.90;;;;;;5068313;28;20053;-81
2021/10/18 04:01:32;;;;;;;34.15;21.33;;;9.50;99.90;;;;;;5072188;28;20328;-81
2021/10/18 04:03:58;;;;;;;29.55;19.85;;;9.40;99.90;;;;;;5066388;28;20017;-80
2021/10/18 04:06:24;;;;;;;31.40;19.50;;;9.30;99.90;;;;;;5063047;28;20108;-80
2021/10/18 04:08:51;;;;;;;28.80;19.77;;;9.30;99.90;;;;;;5063822;28;20580;-80
2021/10/18 04:11:17;;;;;;;27.85;19.67;;;9.20;99.90;;;;;;5069544;28;20116;-81
2021/10/18 04:13:43;;;;;;;29.23;17.95;;;9.30;99.90;;;;;;5065344;28;20520;-81
2021/10/18 04:16:09;;;;;;;26.65;18.02;;;9.20;99.90;;;;;;5072243;28;20492;-80
2021/10/18 04:18:35;;;;;;;29.65;18.05;;;9.20;99.90;;;;;;5067645;28;20110;-80
2021/10/18 04:21:00;;;;;;;30.02;18.70;;;9.20;99.90;;;;;;5063930;28;20029;-81
2021/10/18 04:23:27;;;;;;;28.73;18.88;;;9.10;99.90;;;;;;5068238;28;20099;-81
2021/10/18 04:25:53;;;;;;;32.65;20.20;;;9.10;99.90;;;;;;5067261;28;20024;-80
2021/10/18 04:28:18;;;;;;;62.30;36.92;;;9.10;99.90;;;;;;5070157;28;20043;-81
2021/10/18 04:30:44;;;;;;;44.83;29.55;;;9.10;99.90;;;;;;5067640;28;20035;-81
2021/10/18 04:33:10;;;;;;;43.97;27.08;;;9.10;99.90;;;;;;5062045;28;20025;-81
2021/10/18 04:35:36;;;;;;;35.47;20.98;;;9.10;99.90;;;;;;5066111;28;20027;-80
2021/10/18 04:38:02;;;;;;;33.08;20.58;;;9.10;99.90;;;;;;5065921;28;20037;-81
2021/10/18 04:40:28;;;;;;;28.77;18.63;;;9.10;99.90;;;;;;5065500;28;20029;-80
2021/10/18 04:42:54;;;;;;;29.77;17.95;;;9.10;99.90;;;;;;5065610;28;20025;-81
2021/10/18 04:45:20;;;;;;;28.15;16.77;;;9.00;99.90;;;;;;5070302;28;20103;-80
2021/10/18 04:47:48;;;;;;;31.85;16.92;;;9.00;99.90;;;;;;5069617;28;20035;-81
2021/10/18 04:50:15;;;;;;;31.02;18.08;;;9.10;99.90;;;;;;5073494;28;20099;-81
2021/10/18 04:52:41;;;;;;;36.35;19.77;;;9.00;99.90;;;;;;5063338;28;20032;-80
2021/10/18 04:55:07;;;;;;;34.20;18.60;;;9.00;99.90;;;;;;5062331;28;20033;-80
2021/10/18 04:57:33;;;;;;;26.58;17.33;;;9.00;99.90;;;;;;5065758;28;20025;-81
2021/10/18 04:59:58;;;;;;;28.65;18.45;;;9.00;99.90;;;;;;5068464;28;20024;-80
2021/10/18 05:02:24;;;;;;;30.67;18.75;;;9.00;99.90;;;;;;5071550;28;20025;-80
2021/10/18 05:04:50;;;;;;;35.67;20.35;;;8.90;99.90;;;;;;5069512;28;20048;-81
2021/10/18 05:07:15;;;;;;;34.63;20.60;;;8.90;99.90;;;;;;5065002;28;20032;-80
2021/10/18 05:09:41;;;;;;;32.28;20.45;;;8.90;99.90;;;;;;5060736;28;20041;-80
2021/10/18 05:12:07;;;;;;;32.40;20.20;;;8.90;99.90;;;;;;5064570;28;20378;-81
2021/10/18 05:14:32;;;;;;;32.10;18.95;;;8.90;99.90;;;;;;5069791;28;20082;-80
2021/10/18 05:16:58;;;;;;;34.22;19.65;;;8.90;99.90;;;;;;5065618;28;20062;-81
2021/10/18 05:19:24;;;;;;;33.80;19.25;;;8.90;99.90;;;;;;5063245;28;20029;-80
2021/10/18 05:21:49;;;;;;;39.50;21.02;;;8.90;99.90;;;;;;5066509;28;20032;-80
2021/10/18 05:24:15;;;;;;;27.88;18.50;;;8.90;99.90;;;;;;5069271;28;20534;-80
2021/10/18 05:26:41;;;;;;;32.70;19.20;;;8.90;99.90;;;;;;5072830;28;20056;-80
2021/10/18 05:29:07;;;;;;;30.23;19.30;;;8.90;99.90;;;;;;5073193;28;20065;-80
2021/10/18 05:31:33;;;;;;;32.13;19.58;;;8.90;99.90;;;;;;5068626;28;20044;-81
2021/10/18 05:34:00;;;;;;;37.42;20.23;;;8.90;99.90;;;;;;5069449;28;20530;-82
2021/10/18 05:36:26;;;;;;;34.10;20.15;;;8.90;99.90;;;;;;5069162;28;20037;-81
2021/10/18 05:38:52;;;;;;;29.67;20.10;;;8.90;99.90;;;;;;5062832;28;20499;-81
2021/10/18 05:41:18;;;;;;;30.02;19.20;;;8.90;99.90;;;;;;5063124;28;20020;-81
2021/10/18 05:43:43;;;;;;;36.53;22.30;;;8.90;99.90;;;;;;5068086;28;20074;-82
2021/10/18 05:46:09;;;;;;;34.03;20.25;;;8.80;99.90;;;;;;5070238;28;20025;-81
2021/10/18 05:48:36;;;;;;;34.83;21.00;;;8.80;99.90;;;;;;5062314;28;20021;-80
2021/10/18 05:51:02;;;;;;;29.40;19.25;;;8.80;99.90;;;;;;5066056;28;20036;-81
2021/10/18 05:53:28;;;;;;;32.78;21.08;;;8.80;99.90;;;;;;5074624;28;20061;-81
2021/10/18 05:55:54;;;;;;;37.33;20.70;;;8.80;99.90;;;;;;5068802;28;20071;-79
2021/10/18 05:58:19;;;;;;;36.70;20.92;;;8.80;99.90;;;;;;5066014;28;20530;-77
2021/10/18 06:00:45;;;;;;;36.47;21.25;;;8.90;99.90;;;;;;5068965;28;20032;-81
2021/10/18 06:03:13;;;;;;;31.02;18.83;;;8.80;99.90;;;;;;5061541;28;20048;-82
2021/10/18 06:05:44;;;;;;;35.72;20.73;;;8.90;99.90;;;;;;5063618;28;20032;-81
2021/10/18 06:08:11;;;;;;;36.97;20.67;;;8.80;99.90;;;;;;5063665;28;20024;-80
2021/10/18 06:10:37;;;;;;;39.40;20.77;;;8.80;99.90;;;;;;5068660;28;20105;-80
2021/10/18 06:13:03;;;;;;;39.83;21.90;;;8.80;99.90;;;;;;5065207;28;20536;-83
2021/10/18 06:15:30;;;;;;;41.28;21.30;;;8.90;99.90;;;;;;5069108;28;20068;-82
2021/10/18 06:17:56;;;;;;;36.28;22.20;;;8.80;99.90;;;;;;5065839;28;20032;-82
2021/10/18 06:20:22;;;;;;;34.35;20.33;;;8.80;99.90;;;;;;5066486;28;20052;-84
2021/10/18 06:22:48;;;;;;;35.60;21.40;;;8.80;99.90;;;;;;5071312;28;20036;-83
2021/10/18 06:25:14;;;;;;;39.80;21.15;;;8.80;99.90;;;;;;5067675;28;20038;-84
2021/10/18 06:27:40;;;;;;;39.20;21.92;;;8.80;99.90;;;;;;5063018;28;20020;-76
2021/10/18 06:30:06;;;;;;;38.78;21.98;;;8.80;99.90;;;;;;5075833;28;20025;-77
2021/10/18 06:32:32;;;;;;;42.22;21.95;;;8.70;99.90;;;;;;5067136;28;20408;-75
2021/10/18 06:34:58;;;;;;;36.38;21.92;;;8.80;99.90;;;;;;5070069;28;20033;-77
2021/10/18 06:37:24;;;;;;;38.03;21.98;;;8.80;99.90;;;;;;5061323;28;20067;-77
2021/10/18 06:39:50;;;;;;;41.65;23.48;;;8.80;99.90;;;;;;5065306;28;20032;-77
2021/10/18 06:42:15;;;;;;;47.58;24.83;;;8.70;99.90;;;;;;5065895;28;20029;-77
2021/10/18 06:44:42;;;;;;;39.40;21.80;;;8.70;99.90;;;;;;5065558;28;20427;-77
2021/10/18 06:47:09;;;;;;;44.75;23.05;;;8.70;99.90;;;;;;5063813;28;20016;-77
2021/10/18 06:49:36;;;;;;;38.70;22.13;;;8.80;99.90;;;;;;5064304;28;20511;-76
2021/10/18 06:52:01;;;;;;;35.45;21.52;;;8.80;99.90;;;;;;5070478;28;20051;-77
2021/10/18 06:54:36;;;;;;;38.83;23.08;;;8.80;99.90;;;;;;5068785;28;20024;-77
2021/10/18 06:57:01;;;;;;;50.13;25.73;;;8.80;99.90;;;;;;5071201;28;20687;-77
2021/10/18 06:59:27;;;;;;;42.33;23.60;;;8.90;99.90;;;;;;5062986;28;20113;-77
2021/10/18 07:01:53;;;;;;;43.00;23.08;;;8.90;99.90;;;;;;5062850;28;20060;-76
2021/10/18 07:04:21;;;;;;;37.42;21.60;;;9.00;99.90;;;;;;5060904;28;20078;-77
2021/10/18 07:06:47;;;;;;;41.85;23.58;;;9.00;99.90;;;;;;5060764;28;20029;-77
2021/10/18 07:09:12;;;;;;;41.38;22.42;;;9.10;99.90;;;;;;5060465;28;20048;-77
2021/10/18 07:11:38;;;;;;;42.35;23.45;;;9.00;99.90;;;;;;5064167;28;20464;-77
2021/10/18 07:14:04;;;;;;;44.28;23.73;;;9.10;99.90;;;;;;5058270;28;20028;-77
2021/10/18 07:16:29;;;;;;;41.63;24.25;;;9.10;99.90;;;;;;5064252;28;20032;-77
2021/10/18 07:18:55;;;;;;;44.17;24.52;;;9.20;99.90;;;;;;5070425;28;20035;-77
2021/10/18 07:21:21;;;;;;;52.20;26.58;;;9.10;99.90;;;;;;5070236;28;20021;-76
2021/10/18 07:23:51;;;;;;;41.83;22.95;;;9.20;99.90;;;;;;5070828;28;20032;-77
2021/10/18 07:26:21;;;;;;;45.60;26.45;;;9.20;99.90;;;;;;5070447;28;20389;-76
2021/10/18 07:28:46;;;;;;;46.53;25.63;;;9.30;99.90;;;;;;5070898;28;20210;-77
2021/10/18 07:31:13;;;;;;;47.53;25.70;;;9.30;99.90;;;;;;5069297;28;20469;-78
2021/10/18 07:33:39;;;;;;;48.45;26.60;;;9.20;99.90;;;;;;5069513;28;20017;-77
2021/10/18 07:36:10;;;;;;;58.15;30.00;;;9.30;99.90;;;;;;5067437;28;20029;-78
2021/10/18 07:38:39;;;;;;;60.50;30.98;;;9.30;99.90;;;;;;5072035;28;20099;-78
2021/10/18 07:41:06;;;;;;;60.85;29.52;;;9.30;99.90;;;;;;5065050;28;20029;-78
2021/10/18 07:43:32;;;;;;;47.67;25.80;;;9.20;99.90;;;;;;5063255;28;20453;-77
2021/10/18 07:45:57;;;;;;;54.55;28.58;;;9.20;99.90;;;;;;5063194;28;20033;-78
2021/10/18 07:48:23;;;;;;;49.72;27.38;;;9.30;99.90;;;;;;5062979;28;20377;-77
2021/10/18 07:50:49;;;;;;;50.20;27.92;;;9.30;99.90;;;;;;5063194;28;20112;-77
2021/10/18 07:53:15;;;;;;;59.97;29.05;;;9.40;99.90;;;;;;5050971;28;20074;-77
2021/10/18 07:55:41;;;;;;;61.17;30.33;;;9.40;99.90;;;;;;5077816;28;20024;-77
2021/10/18 07:58:06;;;;;;;51.83;27.70;;;9.50;99.90;;;;;;5067161;28;20056;-77
2021/10/18 08:00:33;;;;;;;57.10;29.98;;;9.60;99.90;;;;;;5066533;28;20094;-77
2021/10/18 08:02:59;;;;;;;52.45;29.23;;;9.70;99.90;;;;;;5065731;28;20154;-77
2021/10/18 08:05:26;;;;;;;53.67;30.85;;;9.80;99.90;;;;;;5066650;28;20108;-77
2021/10/18 08:07:53;;;;;;;55.08;29.73;;;9.90;99.90;;;;;;5066710;28;20047;-77
2021/10/18 08:10:24;;;;;;;46.67;29.05;;;10.00;99.90;;;;;;5064993;28;20389;-78
2021/10/18 08:12:55;;;;;;;58.45;29.88;;;10.10;99.90;;;;;;5067199;28;20831;-77
2021/10/18 08:15:22;;;;;;;49.20;29.23;;;10.10;99.90;;;;;;5067512;28;20032;-77
2021/10/18 08:17:48;;;;;;;57.83;31.17;;;10.20;99.90;;;;;;5076030;28;20025;-77
2021/10/18 08:20:15;;;;;;;54.83;31.50;;;10.30;99.90;;;;;;5069004;28;20533;-77
2021/10/18 08:22:41;;;;;;;56.13;32.70;;;10.40;99.90;;;;;;5070264;28;20122;-78
2021/10/18 08:25:09;;;;;;;52.50;30.52;;;10.50;99.90;;;;;;5059349;28;20032;-77
2021/10/18 08:27:36;;;;;;;57.50;31.23;;;10.60;99.90;;;;;;5059652;28;20033;-77
2021/10/18 08:30:04;;;;;;;55.85;31.98;;;10.60;99.90;;;;;;5064293;28;20032;-77
2021/10/18 08:32:30;;;;;;;58.20;33.03;;;10.60;99.90;;;;;;5064862;28;20025;-77
2021/10/18 08:34:56;;;;;;;55.78;33.70;;;10.70;99.90;;;;;;5069510;28;20090;-77
2021/10/18 08:37:22;;;;;;;61.97;35.20;;;10.90;99.90;;;;;;5065487;28;20041;-77
2021/10/18 08:42:27;;;;;;;56.13;32.70;;;11.00;99.90;;;;;;5065850;28;20036;-76
2021/10/18 08:44:53;;;;;;;55.60;31.20;;;11.10;99.90;;;;;;5063309;28;20078;-77
2021/10/18 08:47:24;;;;;;;55.47;31.58;;;11.20;99.90;;;;;;5064916;28;20029;-77
2021/10/18 08:49:50;;;;;;;54.17;30.73;;;11.30;99.90;;;;;;5066557;28;20044;-77
2021/10/18 08:52:20;;;;;;;49.55;28.50;;;11.40;99.90;;;;;;5066054;28;20056;-76
2021/10/18 08:54:46;;;;;;;49.33;28.98;;;11.40;99.90;;;;;;5062413;28;20044;-77
2021/10/18 08:57:12;;;;;;;48.33;27.98;;;11.40;99.90;;;;;;5057321;28;20083;-77
2021/10/18 08:59:38;;;;;;;45.95;28.20;;;11.50;99.90;;;;;;5062974;28;20021;-77
2021/10/18 09:02:03;;;;;;;51.83;28.50;;;11.70;99.90;;;;;;5060820;28;20051;-77
2021/10/18 09:04:31;;;;;;;49.95;30.85;;;11.80;99.90;;;;;;5059802;28;20108;-77
2021/10/18 09:06:59;;;;;;;46.83;29.20;;;11.90;99.90;;;;;;5063946;28;20029;-77
2021/10/18 09:09:27;;;;;;;45.28;27.38;;;12.00;99.90;;;;;;5072963;28;20435;-79
2021/10/18 09:11:58;;;;;;;47.10;26.88;;;12.20;99.90;;;;;;5061942;28;20538;-77
2021/10/18 09:14:24;;;;;;;42.15;25.42;;;12.20;99.90;;;;;;5070209;28;20063;-77
2021/10/18 09:16:50;;;;;;;43.67;26.42;;;12.30;99.90;;;;;;5074261;28;20036;-77
2021/10/18 09:19:23;;;;;;;43.13;24.73;;;12.40;99.90;;;;;;5073881;28;20465;-77
2021/10/18 09:21:54;;;;;;;46.42;25.42;;;12.50;99.90;;;;;;5069798;28;20100;-77
2021/10/18 09:24:29;;;;;;;41.35;23.98;;;12.50;99.90;;;;;;5062523;28;20752;-77
2021/10/18 09:27:01;;;;;;;33.05;21.10;;;12.60;99.90;;;;;;5070897;28;20025;-78
2021/10/18 09:29:45;;;;;;;33.03;21.42;;;12.60;99.90;;;;;;5065054;28;20031;-77
2021/10/18 09:32:17;;;;;;;36.75;21.70;;;12.70;99.90;;;;;;5065960;28;20020;-78
2021/10/18 09:34:43;;;;;;;33.92;21.23;;;12.80;99.90;;;;;;5063365;28;20114;-77
2021/10/18 09:37:14;;;;;;;34.10;18.92;;;12.70;99.90;;;;;;5063683;28;20119;-78
2021/10/18 09:39:42;;;;;;;32.47;19.15;;;12.90;99.90;;;;;;5056900;28;20025;-78
2021/10/18 09:42:14;;;;;;;30.45;18.60;;;13.10;99.90;;;;;;5061996;28;20477;-78
2021/10/18 10:53:21;;;;;;;19.13;12.48;;;14.70;99.90;;;;;;5071725;28;20078;-81
2021/10/18 10:55:48;;;;;;;19.48;12.73;;;14.80;99.90;;;;;;5068899;28;20043;-81
2021/10/18 10:58:40;;;;;;;22.35;14.27;;;14.90;99.90;;;;;;5067931;28;20027;-80
2021/10/18 11:01:06;;;;;;;19.05;12.82;;;14.90;99.90;;;;;;5070456;28;20025;-80
2021/10/18 11:03:39;;;;;;;20.02;13.68;;;15.00;99.90;;;;;;5072303;28;20025;-78
2021/10/18 11:06:09;;;;;;;24.70;14.40;;;15.10;99.90;;;;;;5071913;28;20051;-77
2021/10/18 11:08:40;;;;;;;21.90;12.32;;;15.10;99.90;;;;;;5072664;28;20029;-77
2021/10/18 11:11:19;;;;;;;18.27;11.80;;;15.10;99.90;;;;;;5068729;28;20069;-80
2021/10/18 11:13:45;;;;;;;17.85;11.60;;;15.10;99.90;;;;;;5069880;28;20070;-80
2021/10/18 11:16:11;;;;;;;19.75;11.75;;;15.20;99.90;;;;;;5068166;28;20070;-76
2021/10/18 11:18:39;;;;;;;16.92;10.50;;;15.30;99.90;;;;;;5066901;28;20435;-77
2021/10/18 11:21:13;;;;;;;19.40;11.77;;;15.40;99.90;;;;;;5068693;28;20021;-82
2021/10/18 11:24:03;;;;;;;21.80;12.93;;;15.50;99.90;;;;;;5063282;28;20024;-79
2021/10/18 11:26:31;;;;;;;15.50;11.25;;;15.60;99.90;;;;;;5066626;28;20054;-76
2021/10/18 11:29:00;;;;;;;16.77;11.07;;;15.80;99.90;;;;;;5065849;28;20028;-77
2021/10/18 11:31:32;;;;;;;17.10;10.88;;;15.80;99.90;;;;;;5069058;28;20037;-77
2021/10/18 11:34:12;;;;;;;11.10;9.25;;;15.80;99.90;;;;;;5064329;28;20013;-77
2021/10/18 11:36:40;;;;;;;19.73;11.40;;;15.90;99.90;;;;;;5072495;28;20033;-78
2021/10/18 11:39:25;;;;;;;14.70;10.90;;;15.90;99.90;;;;;;5071356;28;20027;-76
2021/10/18 11:42:07;;;;;;;18.02;10.88;;;15.90;99.90;;;;;;5064846;28;20047;-80
2021/10/18 11:44:47;;;;;;;16.65;9.57;;;15.90;99.90;;;;;;5064175;28;20043;-78
2021/10/18 11:47:23;;;;;;;14.15;9.27;;;16.00;99.90;;;;;;5063850;28;20599;-77
2021/10/18 11:50:09;;;;;;;15.25;8.80;;;16.10;99.90;;;;;;5069853;28;20370;-78
2021/10/18 11:52:45;;;;;;;10.70;7.72;;;16.10;99.90;;;;;;5063267;28;20024;-77
2021/10/18 11:55:17;;;;;;;11.10;7.82;;;16.10;99.90;;;;;;5069083;28;20024;-79
2021/10/18 11:57:45;;;;;;;13.13;8.02;;;16.20;99.90;;;;;;5066065;28;20527;-79
2021/10/18 12:00:32;;;;;;;12.48;8.20;;;16.20;99.90;;;;;;5067356;28;20021;-81
2021/10/18 12:03:03;;;;;;;14.63;8.80;;;16.30;99.90;;;;;;5067306;28;20025;-77
2021/10/18 12:05:46;;;;;;;12.30;9.00;;;16.20;99.90;;;;;;5069967;28;20032;-78
2021/10/18 12:08:17;;;;;;;14.35;9.20;;;16.20;99.90;;;;;;5078567;28;20059;-77
2021/10/18 12:10:48;;;;;;;11.52;7.90;;;16.20;99.90;;;;;;5069777;28;20025;-78
2021/10/18 12:13:21;;;;;;;14.45;8.82;;;16.20;99.90;;;;;;5072060;28;20024;-79
2021/10/18 12:16:22;;;;;;;12.10;7.35;;;16.10;99.90;;;;;;5063989;28;20021;-79
2021/10/18 12:18:52;;;;;;;10.95;7.85;;;16.20;99.90;;;;;;5067353;28;20043;-77
2021/10/18 12:21:22;;;;;;;14.13;8.25;;;16.20;99.90;;;;;;5070996;28;20116;-78
2021/10/18 12:23:55;;;;;;;11.13;7.80;;;16.20;99.90;;;;;;5078974;28;20445;-78
2021/10/18 12:26:24;;;;;;;14.68;9.07;;;16.20;99.90;;;;;;5072046;28;20026;-79
2021/10/18 12:28:54;;;;;;;13.15;8.55;;;16.20;99.90;;;;;;5067480;28;20050;-79
2021/10/18 12:31:43;;;;;;;11.30;7.40;;;16.20;99.90;;;;;;5066837;28;20052;-77
2021/10/18 12:34:13;;;;;;;12.98;7.45;;;16.20;99.90;;;;;;5069276;28;20508;-76
2021/10/18 12:37:07;;;;;;;9.30;6.07;;;16.20;99.90;;;;;;5065569;28;20043;-78
2021/10/18 12:40:05;;;;;;;12.20;7.45;;;16.20;99.90;;;;;;5074016;28;20481;-80
2021/10/18 12:42:33;;;;;;;13.05;6.40;;;16.20;99.90;;;;;;5068710;28;20037;-77
2021/10/18 12:45:07;;;;;;;11.43;5.85;;;16.20;99.90;;;;;;5072158;28;20028;-80
2021/10/18 12:47:36;;;;;;;12.00;6.65;;;16.30;99.90;;;;;;5073715;28;20032;-80
2021/10/18 12:50:04;;;;;;;12.60;7.50;;;16.30;99.90;;;;;;5082849;28;20035;-79
2021/10/18 12:52:32;;;;;;;12.38;7.10;;;16.30;99.90;;;;;;5075391;28;20025;-78
2021/10/18 12:54:59;;;;;;;11.43;7.32;;;16.40;99.90;;;;;;5065680;28;20082;-78
2021/10/18 12:57:27;;;;;;;11.90;6.28;;;16.50;99.90;;;;;;5076870;28;20418;-77
2021/10/18 13:00:11;;;;;;;10.05;5.90;;;16.50;99.90;;;;;;5069339;28;20025;-80
2021/10/18 13:02:46;;;;;;;10.25;6.28;;;16.50;99.90;;;;;;5077034;28;20058;-78
2021/10/18 13:05:14;;;;;;;9.02;6.28;;;16.60;99.90;;;;;;5072403;28;20024;-80
2021/10/18 13:07:42;;;;;;;11.77;5.60;;;16.60;99.90;;;;;;5073250;28;20059;-78
2021/10/18 13:10:10;;;;;;;10.43;6.18;;;16.60;99.90;;;;;;5069935;28;20389;-79
2021/10/18 13:12:36;;;;;;;7.78;6.35;;;16.70;99.90;;;;;;5077276;28;20085;-81
2021/10/18 13:15:03;;;;;;;10.63;6.40;;;16.60;99.90;;;;;;5070423;28;20091;-78
2021/10/18 13:17:28;;;;;;;12.45;5.78;;;16.70;99.90;;;;;;5071529;28;20059;-78
2021/10/18 13:19:54;;;;;;;10.15;6.00;;;16.70;99.90;;;;;;5073703;28;20461;-79
2021/10/18 13:22:21;;;;;;;9.85;6.47;;;16.70;99.90;;;;;;5077400;28;20122;-80
2021/10/18 13:24:47;;;;;;;8.15;5.35;;;16.70;99.90;;;;;;5065238;28;20051;-79
2021/10/18 13:27:13;;;;;;;9.07;5.57;;;16.70;99.90;;;;;;5070760;28;20392;-77
2021/10/18 13:29:39;;;;;;;10.13;5.85;;;16.80;99.90;;;;;;5061657;28;20421;-77
2021/10/18 13:32:05;;;;;;;10.40;5.78;;;16.80;99.90;;;;;;5067281;28;20032;-78
2021/10/18 13:34:32;;;;;;;15.43;6.40;;;16.80;99.90;;;;;;5067484;28;20017;-79
2021/10/18 13:37:02;;;;;;;9.38;6.85;;;16.90;99.90;;;;;;5068858;28;20028;-80
2021/10/18 13:39:28;;;;;;;11.65;6.55;;;16.90;99.90;;;;;;5069800;28;20024;-78
2021/10/18 13:41:55;;;;;;;10.00;6.72;;;16.90;99.90;;;;;;5070794;28;20097;-80
2021/10/18 13:44:21;;;;;;;8.60;5.53;;;16.80;99.90;;;;;;5069606;28;20017;-78
2021/10/18 13:46:47;;;;;;;6.97;5.38;;;16.80;99.90;;;;;;5071466;28;20021;-81